createdAt,value
2022-07-28T00:03:06.175Z,100322.38
2022-07-28T00:08:10.074Z,100326.13
2022-07-28T00:13:11.523Z,100319.94
2022-07-28T00:18:12.934Z,100318.25
2022-07-28T00:23:14.295Z,100309.72
2022-07-28T00:28:15.673Z,100305.81
2022-07-28T00:33:18.455Z,100299.94
2022-07-28T00:38:19.841Z,100304.38
2022-07-28T00:43:24.658Z,100296.97
2022-07-28T00:48:26.017Z,100289.59
2022-07-28T00:53:27.579Z,100295.47
2022-07-28T00:58:29.397Z,100292.28
2022-07-28T01:03:31.617Z,100304.25
2022-07-28T01:09:10.523Z,100290.97
2022-07-28T01:14:23.911Z,100284.72
2022-07-28T01:19:52.571Z,100289.66
2022-07-28T01:25:03.385Z,100284.75
2022-07-28T01:30:35.475Z,100277.25
2022-07-28T01:35:44.344Z,100264.06
2022-07-28T01:40:48.357Z,100272.53
2022-07-28T01:45:55.520Z,100269.56
2022-07-28T01:50:57.723Z,100266.38
2022-07-28T01:56:01.207Z,100269.72
2022-07-28T02:01:04.629Z,100254.09
2022-07-28T02:06:07.213Z,100251.34
2022-07-28T02:11:27.297Z,100244.78
2022-07-28T02:16:30.221Z,100242.97
2022-07-28T02:21:36.335Z,100242.50
2022-07-28T02:26:44.242Z,100240.97
2022-07-28T02:32:17.084Z,100228.84
2022-07-28T02:37:36.454Z,100231.06
2022-07-28T02:42:40.251Z,100228.19
2022-07-28T02:47:48.705Z,100225.38
2022-07-28T02:52:54.088Z,100219.81
2022-07-28T02:57:57.273Z,100212.75
2022-07-28T03:02:59.164Z,100209.22
2022-07-28T03:08:00.698Z,100205.19
2022-07-28T03:13:04.206Z,100198.31
2022-07-28T03:18:06.560Z,100195.63
2022-07-28T03:23:09.955Z,100213.25
2022-07-28T03:28:17.732Z,100205.38
2022-07-28T03:33:19.388Z,100208.75
2022-07-28T03:38:23.810Z,100218.34
2022-07-28T03:43:27.402Z,100217.66
2022-07-28T03:48:32.852Z,100219.16
2022-07-28T03:53:34.609Z,100226.72
2022-07-28T03:58:36.112Z,100214.13
2022-07-28T04:03:43.374Z,100224.38
2022-07-28T04:08:45.572Z,100209.41
2022-07-28T04:13:47.018Z,100216.97
2022-07-28T04:18:48.504Z,100216.66
2022-07-28T04:23:50.204Z,100212.78
2022-07-28T04:28:51.596Z,100213.59
2022-07-28T04:33:52.965Z,100198.00
2022-07-28T04:38:54.378Z,100202.38
2022-07-28T04:43:55.768Z,100209.06
2022-07-28T04:48:57.423Z,100219.16
2022-07-28T04:54:00.034Z,100226.25
2022-07-28T04:59:01.614Z,100227.03
2022-07-28T05:04:05.995Z,100226.88
2022-07-28T05:09:07.749Z,100220.50
2022-07-28T05:14:10.530Z,100227.84
2022-07-28T05:19:14.476Z,100218.25
2022-07-28T05:24:16.602Z,100218.09
2022-07-28T05:29:18.378Z,100226.50
2022-07-28T05:34:19.816Z,100217.78
2022-07-28T05:39:21.321Z,100221.47
2022-07-28T05:44:22.737Z,100218.09
2022-07-28T05:49:24.299Z,100222.97
2022-07-28T05:54:25.910Z,100219.72
2022-07-28T05:59:27.552Z,100221.38
2022-07-28T06:04:29.537Z,100229.78
2022-07-28T06:09:31.249Z,100224.41
2022-07-28T06:14:32.839Z,100213.56
2022-07-28T06:19:34.244Z,100215.66
2022-07-28T06:24:36.532Z,100216.72
2022-07-28T06:29:38.343Z,100220.72
2022-07-28T06:34:39.825Z,100213.66
2022-07-28T06:39:41.238Z,100216.63
2022-07-28T06:44:58.005Z,100216.19
2022-07-28T06:50:00.757Z,100219.66
2022-07-28T06:55:02.749Z,100229.31
2022-07-28T07:00:07.838Z,100233.59
2022-07-28T07:05:11.587Z,100224.66
2022-07-28T07:10:13.114Z,100223.53
2022-07-28T07:15:14.583Z,100225.03
2022-07-28T07:20:17.364Z,100216.19
2022-07-28T07:25:20.102Z,100219.84
2022-07-28T07:30:21.641Z,100225.88
2022-07-28T07:35:23.071Z,100212.34
2022-07-28T07:40:24.583Z,100202.38
2022-07-28T07:45:26.252Z,100199.59
2022-07-28T07:50:27.661Z,100211.91
2022-07-28T07:55:36.170Z,100199.69
2022-07-28T08:00:39.373Z,100197.91
2022-07-28T08:05:40.775Z,100189.91
2022-07-28T08:10:42.188Z,100191.59
2022-07-28T08:15:43.688Z,100185.69
2022-07-28T08:20:45.086Z,100180.53
2022-07-28T08:25:46.559Z,100179.97
2022-07-28T08:30:47.978Z,100184.16
2022-07-28T08:35:49.890Z,100193.09
2022-07-28T08:40:53.369Z,100186.22
2022-07-28T08:45:58.581Z,100187.44
2022-07-28T08:51:11.873Z,100184.72
2022-07-28T08:56:17.259Z,100188.16
2022-07-28T09:01:18.786Z,100179.25
2022-07-28T09:06:21.599Z,100180.97
2022-07-28T09:11:27.893Z,100175.25
2022-07-28T09:16:29.595Z,100169.72
2022-07-28T09:21:31.235Z,100170.44
2022-07-28T09:26:32.602Z,100159.09
2022-07-28T09:31:34.205Z,100159.34
2022-07-28T09:36:41.347Z,100168.00
2022-07-28T09:41:52.844Z,100159.50
2022-07-28T09:46:56.268Z,100149.22
2022-07-28T09:52:05.776Z,100146.94
2022-07-28T09:57:10.586Z,100138.63
2022-07-28T10:02:12.710Z,100135.59
2022-07-28T10:07:16.989Z,100138.78
2022-07-28T10:12:25.291Z,100126.13
2022-07-28T10:17:33.311Z,100111.97
2022-07-28T10:22:42.818Z,100106.50
2022-07-28T10:27:47.487Z,100101.44
2022-07-28T10:32:49.193Z,100090.66
2022-07-28T10:37:58.433Z,100097.53
2022-07-28T10:43:00.222Z,100088.88
2022-07-28T10:48:02.238Z,100092.84
2022-07-28T10:53:04.171Z,100080.38
2022-07-28T10:58:25.258Z,100072.59
2022-07-28T11:03:41.217Z,100066.00
2022-07-28T11:08:42.836Z,100068.41
2022-07-28T11:13:50.312Z,100067.31
2022-07-28T11:19:02.047Z,100062.69
2022-07-28T11:24:06.555Z,100054.59
2022-07-28T11:29:12.188Z,100052.44
2022-07-28T11:34:14.871Z,100048.00
2022-07-28T11:39:27.145Z,100042.84
2022-07-28T11:44:32.990Z,100033.53
2022-07-28T11:49:34.558Z,100018.34
2022-07-28T11:54:37.429Z,100018.34
2022-07-28T11:59:43.695Z,100013.09
2022-07-28T12:05:03.376Z,100003.41
2022-07-28T12:10:53.459Z,100011.47
2022-07-28T12:15:50.944Z,99994.31
2022-07-28T12:20:53.654Z,100009.28
2022-07-28T12:25:55.354Z,100019.31
2022-07-28T12:31:10.477Z,100006.31
2022-07-28T12:36:12.008Z,100000.41
2022-07-28T12:41:15.616Z,99997.25
2022-07-28T12:46:28.268Z,99991.44
2022-07-28T12:51:35.391Z,99994.63
2022-07-28T12:56:53.463Z,99985.34
2022-07-28T13:01:57.300Z,99983.31
2022-07-28T13:06:58.703Z,99984.56
2022-07-28T13:12:00.186Z,99974.06
2022-07-28T13:17:01.611Z,99976.19
2022-07-28T13:22:07.021Z,99967.66
2022-07-28T13:27:10.960Z,99961.31
2022-07-28T13:32:12.433Z,99965.97
2022-07-28T13:37:14.704Z,99964.38
2022-07-28T13:42:16.076Z,99968.63
2022-07-28T13:47:17.637Z,99955.00
2022-07-28T13:52:32.490Z,99950.66
2022-07-28T13:57:36.965Z,99950.50
2022-07-28T14:02:38.461Z,99954.31
2022-07-28T14:07:48.581Z,99949.00
2022-07-28T14:12:50.326Z,99946.63
2022-07-28T14:17:52.816Z,99939.72
2022-07-28T14:22:54.274Z,99940.63
2022-07-28T14:28:07.940Z,99952.75
2022-07-28T14:33:10.789Z,99944.38
2022-07-28T14:43:33.534Z,99940.44
2022-07-28T14:48:34.946Z,99935.91
2022-07-28T14:53:40.047Z,99928.84
2022-07-28T14:58:45.045Z,99931.97
2022-07-28T15:03:46.834Z,99941.84
2022-07-28T15:08:48.400Z,99937.84
2022-07-28T15:13:49.770Z,99929.81
2022-07-28T15:18:52.481Z,99934.03
2022-07-28T15:23:54.143Z,99928.16
2022-07-28T15:28:55.520Z,99922.72
2022-07-28T15:33:58.303Z,99921.44
2022-07-28T15:38:59.906Z,99910.72
2022-07-28T15:44:01.483Z,99913.31
2022-07-28T15:49:11.220Z,99908.16
2022-07-28T15:54:13.387Z,99908.75
2022-07-28T15:59:15.276Z,99908.00
2022-07-28T16:04:16.927Z,99910.00
2022-07-28T16:09:19.035Z,99903.72
2022-07-28T16:14:20.378Z,99900.19
2022-07-28T16:19:47.438Z,99892.28
2022-07-28T16:24:43.336Z,99883.50
2022-07-28T16:29:45.059Z,99882.38
2022-07-28T16:34:47.837Z,99872.09
2022-07-28T16:39:49.207Z,99865.25
2022-07-28T16:44:50.846Z,99859.06
2022-07-28T16:49:52.329Z,99845.31
2022-07-28T16:54:53.755Z,99854.09
2022-07-28T16:59:55.146Z,99857.06
2022-07-28T17:04:56.547Z,99851.84
2022-07-28T17:09:57.960Z,99858.03
2022-07-28T17:14:59.312Z,99852.34
2022-07-28T17:20:01.163Z,99848.63
2022-07-28T17:25:03.103Z,99856.38
2022-07-28T17:30:07.397Z,99855.69
2022-07-28T17:35:09.389Z,99843.84
2022-07-28T17:40:31.075Z,99845.88
2022-07-28T17:45:32.475Z,99836.41
2022-07-28T17:50:33.894Z,99852.88
2022-07-28T17:55:57.457Z,99843.25
2022-07-28T18:01:12.812Z,99839.88
2022-07-28T18:06:14.314Z,99837.00
2022-07-28T18:11:15.785Z,99834.66
2022-07-28T18:16:17.274Z,99841.66
2022-07-28T18:21:18.883Z,99846.88
2022-07-28T18:26:20.291Z,99848.19
2022-07-28T18:31:21.846Z,99849.72
2022-07-28T18:36:23.550Z,99860.72
2022-07-28T18:41:24.951Z,99858.13
2022-07-28T18:46:27.428Z,99853.09
2022-07-28T18:51:28.925Z,99857.81
2022-07-28T18:56:30.300Z,99855.69
2022-07-28T19:01:31.729Z,99852.69
2022-07-28T19:06:33.266Z,99860.81
2022-07-28T19:11:35.857Z,99864.72
2022-07-28T19:16:37.430Z,99883.50
2022-07-28T19:21:43.320Z,99879.00
2022-07-28T19:26:46.497Z,99876.38
2022-07-28T19:31:48.050Z,99886.16
2022-07-28T19:36:51.314Z,99894.56
2022-07-28T19:41:52.855Z,99894.25
2022-07-28T19:46:56.320Z,99893.03
2022-07-28T19:51:57.869Z,99892.13
2022-07-28T19:57:00.823Z,99899.53
2022-07-28T20:02:02.253Z,99896.22
2022-07-28T20:07:04.144Z,99892.03
2022-07-28T20:12:07.639Z,99904.66
2022-07-28T20:17:16.335Z,99904.47
2022-07-28T20:22:31.470Z,99895.53
2022-07-28T20:27:32.802Z,99906.31
2022-07-28T20:32:44.075Z,99925.88
2022-07-28T20:37:45.674Z,99938.06
2022-07-28T20:42:52.535Z,99943.31
2022-07-28T20:47:54.471Z,99948.31
2022-07-28T20:52:55.958Z,99958.16
2022-07-28T20:57:57.511Z,99953.16
2022-07-28T21:02:59.026Z,99957.34
2022-07-28T21:08:06.109Z,99951.53
2022-07-28T21:13:11.017Z,99962.44
2022-07-28T21:18:12.479Z,99970.88
2022-07-28T21:23:13.958Z,99978.19
2022-07-28T21:28:33.993Z,99976.94
2022-07-28T21:33:43.619Z,99989.28
2022-07-28T21:38:45.540Z,99994.72
2022-07-28T21:43:46.938Z,99992.22
2022-07-28T21:48:50.235Z,99991.63
2022-07-28T21:53:53.218Z,99995.00
2022-07-28T21:58:54.626Z,99981.03
2022-07-28T22:03:56.249Z,99981.91
2022-07-28T22:08:57.599Z,99996.13
2022-07-28T22:13:59.008Z,99997.41
2022-07-28T22:19:00.348Z,99996.56
2022-07-28T22:24:01.680Z,99999.69
2022-07-28T22:29:03.270Z,99992.00
2022-07-28T22:34:04.664Z,99989.94
2022-07-28T22:39:06.072Z,99992.84
2022-07-28T22:44:07.512Z,99982.63
2022-07-28T22:49:09.055Z,99982.84
2022-07-28T22:54:10.473Z,99980.53
2022-07-28T22:59:14.522Z,99981.59
2022-07-28T23:04:19.537Z,99970.94
2022-07-28T23:09:23.813Z,99967.38
2022-07-28T23:14:25.153Z,99971.56
2022-07-28T23:19:26.555Z,99963.00
2022-07-28T23:24:28.018Z,99974.06
2022-07-28T23:29:29.352Z,99974.72
2022-07-28T23:34:30.700Z,99961.56
2022-07-28T23:39:32.045Z,99958.66
2022-07-28T23:44:33.557Z,99961.16
2022-07-28T23:49:35.003Z,99967.88
2022-07-28T23:54:36.392Z,99959.94
2022-07-28T23:59:37.862Z,99953.25
